sensor_id;sensor_type;location;lat;lon;timestamp;pressure;altitude;pressure_sealevel;temperature;humidity
83264;BME280;73156;50.988;11.034;2023-12-20T00:00:38;99029.00;;;23.80;35.59
83264;BME280;73156;50.988;11.034;2023-12-20T00:03:03;99030.94;;;23.84;35.38
83264;BME280;73156;50.988;11.034;2023-12-20T00:05:29;99019.66;;;23.89;35.30
83264;BME280;73156;50.988;11.034;2023-12-20T00:07:57;99019.44;;;23.81;35.51
83264;BME280;73156;50.988;11.034;2023-12-20T00:10:22;99015.75;;;23.85;35.17
83264;BME280;73156;50.988;11.034;2023-12-20T00:12:47;99012.22;;;23.75;35.67
83264;BME280;73156;50.988;11.034;2023-12-20T00:15:12;99006.53;;;23.80;35.46
83264;BME280;73156;50.988;11.034;2023-12-20T00:17:38;99010.19;;;23.80;34.97
83264;BME280;73156;50.988;11.034;2023-12-20T00:20:03;99002.81;;;23.89;35.33
83264;BME280;73156;50.988;11.034;2023-12-20T00:22:29;99012.75;;;23.77;35.68
83264;BME280;73156;50.988;11.034;2023-12-20T00:24:54;99007.13;;;23.77;35.45
83264;BME280;73156;50.988;11.034;2023-12-20T00:27:19;99007.69;;;23.79;35.62
83264;BME280;73156;50.988;11.034;2023-12-20T00:29:44;98994.78;;;23.78;35.00
83264;BME280;73156;50.988;11.034;2023-12-20T00:32:13;99009.94;;;23.77;35.51
83264;BME280;73156;50.988;11.034;2023-12-20T00:34:38;99016.16;;;23.74;35.67
83264;BME280;73156;50.988;11.034;2023-12-20T00:37:03;99015.91;;;23.70;36.00
83264;BME280;73156;50.988;11.034;2023-12-20T00:39:28;99022.38;;;23.71;35.91
83264;BME280;73156;50.988;11.034;2023-12-20T00:41:54;99022.38;;;23.66;35.91
83264;BME280;73156;50.988;11.034;2023-12-20T00:44:19;99022.19;;;23.57;35.95
83264;BME280;73156;50.988;11.034;2023-12-20T00:46:44;99018.47;;;23.62;35.89
83264;BME280;73156;50.988;11.034;2023-12-20T00:49:09;99019.25;;;23.72;35.83
83264;BME280;73156;50.988;11.034;2023-12-20T00:51:35;99013.44;;;23.64;35.81
83264;BME280;73156;50.988;11.034;2023-12-20T00:54:00;99014.81;;;23.66;35.74
83264;BME280;73156;50.988;11.034;2023-12-20T00:56:25;99010.03;;;23.67;35.66
83264;BME280;73156;50.988;11.034;2023-12-20T00:58:50;99017.31;;;23.68;35.52
83264;BME280;73156;50.988;11.034;2023-12-20T01:01:16;99013.13;;;23.65;35.67
83264;BME280;73156;50.988;11.034;2023-12-20T01:03:42;98988.81;;;23.51;35.56
83264;BME280;73156;50.988;11.034;2023-12-20T01:06:07;99001.91;;;23.65;35.45
83264;BME280;73156;50.988;11.034;2023-12-20T01:08:32;99007.88;;;23.54;35.62
83264;BME280;73156;50.988;11.034;2023-12-20T01:11:00;99010.34;;;23.60;35.86
83264;BME280;73156;50.988;11.034;2023-12-20T01:13:25;99004.16;;;23.63;35.50
83264;BME280;73156;50.988;11.034;2023-12-20T01:15:50;98989.88;;;23.60;35.79
83264;BME280;73156;50.988;11.034;2023-12-20T01:18:15;98992.91;;;23.68;35.73
83264;BME280;73156;50.988;11.034;2023-12-20T01:20:41;98992.34;;;23.66;36.33
83264;BME280;73156;50.988;11.034;2023-12-20T01:23:06;99000.56;;;23.58;35.71
83264;BME280;73156;50.988;11.034;2023-12-20T01:25:31;98982.09;;;23.47;35.51
83264;BME280;73156;50.988;11.034;2023-12-20T01:27:57;99008.41;;;23.61;35.79
83264;BME280;73156;50.988;11.034;2023-12-20T01:30:22;99004.94;;;23.69;35.42
83264;BME280;73156;50.988;11.034;2023-12-20T01:32:47;99000.72;;;23.71;35.06
83264;BME280;73156;50.988;11.034;2023-12-20T01:35:12;98996.56;;;23.64;35.36
83264;BME280;73156;50.988;11.034;2023-12-20T01:37:38;98990.41;;;23.62;35.35
83264;BME280;73156;50.988;11.034;2023-12-20T01:40:04;98983.75;;;23.53;35.39
83264;BME280;73156;50.988;11.034;2023-12-20T01:42:29;98995.78;;;23.58;35.60
83264;BME280;73156;50.988;11.034;2023-12-20T01:44:54;98983.13;;;23.61;35.57
83264;BME280;73156;50.988;11.034;2023-12-20T01:47:20;98987.34;;;23.58;35.48
83264;BME280;73156;50.988;11.034;2023-12-20T01:49:46;98984.75;;;23.67;35.26
83264;BME280;73156;50.988;11.034;2023-12-20T01:52:12;98989.59;;;23.56;35.51
83264;BME280;73156;50.988;11.034;2023-12-20T01:54:38;98990.16;;;23.58;35.41
83264;BME280;73156;50.988;11.034;2023-12-20T01:57:05;98974.47;;;23.52;35.66
83264;BME280;73156;50.988;11.034;2023-12-20T01:59:31;98972.81;;;23.51;35.57
83264;BME280;73156;50.988;11.034;2023-12-20T02:01:56;98972.22;;;23.54;35.21
83264;BME280;73156;50.988;11.034;2023-12-20T02:04:21;98970.84;;;23.52;35.74
83264;BME280;73156;50.988;11.034;2023-12-20T02:06:48;98977.28;;;23.52;35.53
83264;BME280;73156;50.988;11.034;2023-12-20T02:09:15;98975.06;;;23.49;35.68
83264;BME280;73156;50.988;11.034;2023-12-20T02:11:40;98976.50;;;23.47;35.47
83264;BME280;73156;50.988;11.034;2023-12-20T02:14:05;98975.91;;;23.50;35.43
83264;BME280;73156;50.988;11.034;2023-12-20T02:16:30;98978.72;;;23.50;35.12
83264;BME280;73156;50.988;11.034;2023-12-20T02:18:56;98976.50;;;23.47;35.69
83264;BME280;73156;50.988;11.034;2023-12-20T02:21:33;98969.50;;;23.44;35.68
83264;BME280;73156;50.988;11.034;2023-12-20T02:24:02;98970.06;;;23.46;35.52
83264;BME280;73156;50.988;11.034;2023-12-20T02:26:27;98964.44;;;23.46;35.62
83264;BME280;73156;50.988;11.034;2023-12-20T02:28:52;98950.88;;;23.53;35.60
83264;BME280;73156;50.988;11.034;2023-12-20T02:31:21;98963.31;;;23.47;35.60
83264;BME280;73156;50.988;11.034;2023-12-20T02:33:47;98958.81;;;23.46;35.51
83264;BME280;73156;50.988;11.034;2023-12-20T02:36:12;98945.59;;;23.47;35.22
83264;BME280;73156;50.988;11.034;2023-12-20T02:38:37;98946.66;;;23.56;35.34
83264;BME280;73156;50.988;11.034;2023-12-20T02:41:03;98949.72;;;23.59;35.08
83264;BME280;73156;50.988;11.034;2023-12-20T02:43:28;98948.34;;;23.57;35.22
83264;BME280;73156;50.988;11.034;2023-12-20T02:45:53;98939.34;;;23.55;35.46
83264;BME280;73156;50.988;11.034;2023-12-20T02:48:18;98929.25;;;23.54;35.33
83264;BME280;73156;50.988;11.034;2023-12-20T02:50:45;98942.44;;;23.53;35.00
83264;BME280;73156;50.988;11.034;2023-12-20T02:53:11;98942.22;;;23.50;35.16
83264;BME280;73156;50.988;11.034;2023-12-20T02:55:37;98941.34;;;23.54;35.17
83264;BME280;73156;50.988;11.034;2023-12-20T02:58:02;98907.78;;;23.39;35.19
83264;BME280;73156;50.988;11.034;2023-12-20T03:00:27;98932.91;;;23.54;35.33
83264;BME280;73156;50.988;11.034;2023-12-20T03:02:52;98928.41;;;23.53;34.81
83264;BME280;73156;50.988;11.034;2023-12-20T03:05:18;98935.22;;;23.47;35.08
83264;BME280;73156;50.988;11.034;2023-12-20T03:07:43;98954.28;;;23.50;35.24
83264;BME280;73156;50.988;11.034;2023-12-20T03:10:08;98945.09;;;23.40;35.46
83264;BME280;73156;50.988;11.034;2023-12-20T03:12:34;98958.22;;;23.49;35.00
83264;BME280;73156;50.988;11.034;2023-12-20T03:14:59;98951.50;;;23.50;35.07
83264;BME280;73156;50.988;11.034;2023-12-20T03:17:25;98917.59;;;23.42;35.08
83264;BME280;73156;50.988;11.034;2023-12-20T03:19:50;98940.75;;;23.57;34.84
83264;BME280;73156;50.988;11.034;2023-12-20T03:22:15;98927.31;;;23.54;34.86
83264;BME280;73156;50.988;11.034;2023-12-20T03:24:40;98922.91;;;23.43;35.04
83264;BME280;73156;50.988;11.034;2023-12-20T03:27:06;98931.84;;;23.50;35.15
83264;BME280;73156;50.988;11.034;2023-12-20T03:29:31;98934.34;;;23.52;34.92
83264;BME280;73156;50.988;11.034;2023-12-20T03:31:56;98926.22;;;23.50;34.82
83264;BME280;73156;50.988;11.034;2023-12-20T03:34:21;98930.94;;;23.55;34.59
83264;BME280;73156;50.988;11.034;2023-12-20T03:36:46;98932.63;;;23.56;35.02
83264;BME280;73156;50.988;11.034;2023-12-20T03:39:13;98945.59;;;23.47;34.90
83264;BME280;73156;50.988;11.034;2023-12-20T03:41:38;98907.31;;;23.27;34.98
83264;BME280;73156;50.988;11.034;2023-12-20T03:44:03;98944.16;;;23.49;34.83
83264;BME280;73156;50.988;11.034;2023-12-20T03:46:28;98940.53;;;23.49;34.88
83264;BME280;73156;50.988;11.034;2023-12-20T03:48:54;98946.44;;;23.47;34.92
83264;BME280;73156;50.988;11.034;2023-12-20T03:51:19;98953.69;;;23.53;34.87
83264;BME280;73156;50.988;11.034;2023-12-20T03:53:44;98964.09;;;23.53;35.00
83264;BME280;73156;50.988;11.034;2023-12-20T03:56:09;98960.19;;;23.49;34.81
83264;BME280;73156;50.988;11.034;2023-12-20T03:58:35;98957.19;;;23.40;35.12
83264;BME280;73156;50.988;11.034;2023-12-20T04:01:00;98971.44;;;23.49;34.89
83264;BME280;73156;50.988;11.034;2023-12-20T04:03:25;98977.34;;;23.42;35.14
83264;BME280;73156;50.988;11.034;2023-12-20T04:05:50;98977.34;;;23.47;34.90
83264;BME280;73156;50.988;11.034;2023-12-20T04:08:16;98968.94;;;23.42;35.40
83264;BME280;73156;50.988;11.034;2023-12-20T04:10:41;98959.13;;;23.40;35.23
83264;BME280;73156;50.988;11.034;2023-12-20T04:13:06;98966.75;;;23.39;35.24
83264;BME280;73156;50.988;11.034;2023-12-20T04:15:32;98974.59;;;23.37;35.10
83264;BME280;73156;50.988;11.034;2023-12-20T04:17:57;98975.75;;;23.36;34.97
83264;BME280;73156;50.988;11.034;2023-12-20T04:20:22;98987.53;;;23.33;35.28
83264;BME280;73156;50.988;11.034;2023-12-20T04:22:47;98988.59;;;23.42;35.13
83264;BME280;73156;50.988;11.034;2023-12-20T04:25:13;98972.38;;;23.34;35.19
83264;BME280;73156;50.988;11.034;2023-12-20T04:27:38;98974.03;;;23.40;34.84
83264;BME280;73156;50.988;11.034;2023-12-20T04:30:03;98974.56;;;23.42;35.01
83264;BME280;73156;50.988;11.034;2023-12-20T04:32:29;98972.00;;;23.46;35.32
83264;BME280;73156;50.988;11.034;2023-12-20T04:34:54;98994.81;;;23.39;35.17
83264;BME280;73156;50.988;11.034;2023-12-20T04:37:19;98993.97;;;23.39;35.10
83264;BME280;73156;50.988;11.034;2023-12-20T04:39:45;98997.63;;;23.39;34.90
83264;BME280;73156;50.988;11.034;2023-12-20T04:42:10;98997.34;;;23.41;35.32
83264;BME280;73156;50.988;11.034;2023-12-20T04:44:35;98990.31;;;23.38;34.88
83264;BME280;73156;50.988;11.034;2023-12-20T04:47:00;98997.34;;;23.36;35.16
83264;BME280;73156;50.988;11.034;2023-12-20T04:49:26;98990.03;;;23.40;34.78
83264;BME280;73156;50.988;11.034;2023-12-20T04:51:51;98987.78;;;23.37;35.01
83264;BME280;73156;50.988;11.034;2023-12-20T04:54:16;98975.56;;;23.23;35.20
83264;BME280;73156;50.988;11.034;2023-12-20T04:56:42;98983.66;;;23.29;35.26
83264;BME280;73156;50.988;11.034;2023-12-20T04:59:07;98979.72;;;23.20;35.40
83264;BME280;73156;50.988;11.034;2023-12-20T05:01:32;98991.78;;;23.26;35.42
83264;BME280;73156;50.988;11.034;2023-12-20T05:03:57;98984.81;;;23.23;35.32
83264;BME280;73156;50.988;11.034;2023-12-20T05:06:23;98988.16;;;23.25;35.26
83264;BME280;73156;50.988;11.034;2023-12-20T05:08:48;98972.47;;;23.24;35.45
83264;BME280;73156;50.988;11.034;2023-12-20T05:11:13;98980.25;;;23.32;34.96
83264;BME280;73156;50.988;11.034;2023-12-20T05:13:40;98982.84;;;23.24;35.28
83264;BME280;73156;50.988;11.034;2023-12-20T05:16:05;98994.59;;;23.31;35.23
83264;BME280;73156;50.988;11.034;2023-12-20T05:18:30;98983.16;;;23.17;35.50
83264;BME280;73156;50.988;11.034;2023-12-20T05:20:56;98976.41;;;23.18;35.26
83264;BME280;73156;50.988;11.034;2023-12-20T05:23:21;98980.28;;;23.27;34.79
83264;BME280;73156;50.988;11.034;2023-12-20T05:25:47;98973.88;;;23.17;35.17
83264;BME280;73156;50.988;11.034;2023-12-20T05:28:12;98982.06;;;23.13;35.22
83264;BME280;73156;50.988;11.034;2023-12-20T05:30:37;98993.78;;;23.20;35.20
83264;BME280;73156;50.988;11.034;2023-12-20T05:33:02;98993.78;;;23.20;35.15
83264;BME280;73156;50.988;11.034;2023-12-20T05:35:28;98997.13;;;23.27;34.96
83264;BME280;73156;50.988;11.034;2023-12-20T05:37:53;99001.91;;;23.27;35.17
83264;BME280;73156;50.988;11.034;2023-12-20T05:40:18;98992.09;;;23.19;35.14
83264;BME280;73156;50.988;11.034;2023-12-20T05:42:43;98997.41;;;23.26;35.33
83264;BME280;73156;50.988;11.034;2023-12-20T05:45:09;99002.75;;;23.27;35.17
83264;BME280;73156;50.988;11.034;2023-12-20T05:47:34;99013.44;;;23.25;35.14
83264;BME280;73156;50.988;11.034;2023-12-20T05:49:59;99000.81;;;23.23;35.23
83264;BME280;73156;50.988;11.034;2023-12-20T05:52:25;99020.16;;;23.29;34.94
83264;BME280;73156;50.988;11.034;2023-12-20T05:54:50;99016.66;;;23.42;34.68
83264;BME280;73156;50.988;11.034;2023-12-20T05:57:15;99010.84;;;23.34;34.89
83264;BME280;73156;50.988;11.034;2023-12-20T05:59:40;99014.72;;;23.43;34.78
83264;BME280;73156;50.988;11.034;2023-12-20T06:02:06;99025.13;;;23.37;34.99
83264;BME280;73156;50.988;11.034;2023-12-20T06:04:32;99008.84;;;23.39;34.84
83264;BME280;73156;50.988;11.034;2023-12-20T06:06:57;99018.06;;;23.45;34.64
83264;BME280;73156;50.988;11.034;2023-12-20T06:09:23;99015.56;;;23.38;34.70
83264;BME280;73156;50.988;11.034;2023-12-20T06:11:48;99025.41;;;23.41;34.69
83264;BME280;73156;50.988;11.034;2023-12-20T06:14:14;99026.78;;;23.43;34.56
83264;BME280;73156;50.988;11.034;2023-12-20T06:16:39;99025.53;;;23.59;34.09
83264;BME280;73156;50.988;11.034;2023-12-20T06:19:04;99036.25;;;23.57;34.32
83264;BME280;73156;50.988;11.034;2023-12-20T06:21:29;99027.91;;;23.42;34.65
83264;BME280;73156;50.988;11.034;2023-12-20T06:23:55;99029.59;;;23.38;34.91
83264;BME280;73156;50.988;11.034;2023-12-20T06:26:20;99034.63;;;23.46;34.82
83264;BME280;73156;50.988;11.034;2023-12-20T06:28:45;99041.13;;;23.42;34.74
83264;BME280;73156;50.988;11.034;2023-12-20T06:31:11;99026.28;;;23.31;35.03
83264;BME280;73156;50.988;11.034;2023-12-20T06:33:36;99041.13;;;23.42;34.50
83264;BME280;73156;50.988;11.034;2023-12-20T06:36:01;99031.59;;;23.38;34.78
83264;BME280;73156;50.988;11.034;2023-12-20T06:38:26;99028.50;;;23.34;34.93
83264;BME280;73156;50.988;11.034;2023-12-20T06:40:52;99005.00;;;23.20;34.59
83264;BME280;73156;50.988;11.034;2023-12-20T06:43:17;99022.31;;;23.37;34.53
83264;BME280;73156;50.988;11.034;2023-12-20T06:45:42;99017.81;;;23.41;34.75
83264;BME280;73156;50.988;11.034;2023-12-20T06:48:07;99012.16;;;23.46;34.47
83264;BME280;73156;50.988;11.034;2023-12-20T06:50:33;99010.22;;;23.42;34.49
83264;BME280;73156;50.988;11.034;2023-12-20T06:52:58;99012.66;;;23.53;34.42
83264;BME280;73156;50.988;11.034;2023-12-20T06:55:23;99019.75;;;23.46;34.62
83264;BME280;73156;50.988;11.034;2023-12-20T06:57:49;99012.69;;;23.48;34.46
83264;BME280;73156;50.988;11.034;2023-12-20T07:00:14;99020.84;;;23.50;34.42
83264;BME280;73156;50.988;11.034;2023-12-20T07:02:40;99020.28;;;23.48;34.56
83264;BME280;73156;50.988;11.034;2023-12-20T07:05:05;99019.47;;;23.47;34.56
83264;BME280;73156;50.988;11.034;2023-12-20T07:07:31;99019.41;;;23.52;34.48
83264;BME280;73156;50.988;11.034;2023-12-20T07:09:56;99021.69;;;23.50;34.23
83264;BME280;73156;50.988;11.034;2023-12-20T07:12:22;98993.44;;;23.32;34.34
83264;BME280;73156;50.988;11.034;2023-12-20T07:14:47;99040.19;;;23.51;34.53
83264;BME280;73156;50.988;11.034;2023-12-20T07:17:12;99050.59;;;23.51;34.34
83264;BME280;73156;50.988;11.034;2023-12-20T07:19:40;99051.72;;;23.50;34.26
83264;BME280;73156;50.988;11.034;2023-12-20T07:22:06;99049.78;;;23.45;34.72
83264;BME280;73156;50.988;11.034;2023-12-20T07:24:31;99048.69;;;23.46;34.28
83264;BME280;73156;50.988;11.034;2023-12-20T07:26:56;99041.63;;;23.49;34.26
83264;BME280;73156;50.988;11.034;2023-12-20T07:29:22;99045.53;;;23.53;34.05
83264;BME280;73156;50.988;11.034;2023-12-20T07:31:47;99027.09;;;23.37;34.41
83264;BME280;73156;50.988;11.034;2023-12-20T07:34:12;99043.88;;;23.47;34.06
83264;BME280;73156;50.988;11.034;2023-12-20T07:36:37;99038.53;;;23.45;34.64
83264;BME280;73156;50.988;11.034;2023-12-20T07:39:03;99054.88;;;23.43;34.67
83264;BME280;73156;50.988;11.034;2023-12-20T07:41:28;99050.13;;;23.39;34.39
83264;BME280;73156;50.988;11.034;2023-12-20T07:43:53;99037.28;;;23.28;34.88
83264;BME280;73156;50.988;11.034;2023-12-20T07:46:20;99054.34;;;23.36;34.69
83264;BME280;73156;50.988;11.034;2023-12-20T07:48:47;99050.97;;;23.39;34.49
83264;BME280;73156;50.988;11.034;2023-12-20T07:51:13;99046.78;;;23.32;34.71
83264;BME280;73156;50.988;11.034;2023-12-20T07:53:38;99045.94;;;23.31;34.59
83264;BME280;73156;50.988;11.034;2023-12-20T07:56:13;99046.25;;;23.30;34.69
83264;BME280;73156;50.988;11.034;2023-12-20T07:58:39;99049.31;;;23.33;34.56
83264;BME280;73156;50.988;11.034;2023-12-20T08:01:04;99050.69;;;23.36;34.48
83264;BME280;73156;50.988;11.034;2023-12-20T08:03:29;99053.78;;;23.39;34.60
83264;BME280;73156;50.988;11.034;2023-12-20T08:05:54;99054.06;;;23.38;34.77
83264;BME280;73156;50.988;11.034;2023-12-20T08:08:20;99043.97;;;23.32;34.55
83264;BME280;73156;50.988;11.034;2023-12-20T08:10:45;99072.63;;;23.34;34.46
83264;BME280;73156;50.988;11.034;2023-12-20T08:13:10;99067.56;;;23.31;34.64
83264;BME280;73156;50.988;11.034;2023-12-20T08:15:36;99067.81;;;23.39;34.63
83264;BME280;73156;50.988;11.034;2023-12-20T08:18:02;99070.63;;;23.39;34.41
83264;BME280;73156;50.988;11.034;2023-12-20T08:20:28;99077.03;;;23.45;34.11
83264;BME280;73156;50.988;11.034;2023-12-20T08:22:53;99063.31;;;23.38;34.39
83264;BME280;73156;50.988;11.034;2023-12-20T08:25:18;99054.34;;;23.36;34.55
83264;BME280;73156;50.988;11.034;2023-12-20T08:27:43;99043.13;;;23.36;34.31
83264;BME280;73156;50.988;11.034;2023-12-20T08:30:09;99068.66;;;23.35;34.62
83264;BME280;73156;50.988;11.034;2023-12-20T08:32:35;99071.44;;;23.40;34.54
83264;BME280;73156;50.988;11.034;2023-12-20T08:35:00;99057.97;;;23.37;34.59
83264;BME280;73156;50.988;11.034;2023-12-20T08:37:25;99051.25;;;23.38;35.06
83264;BME280;73156;50.988;11.034;2023-12-20T08:39:50;99047.88;;;23.41;34.09
83264;BME280;73156;50.988;11.034;2023-12-20T08:42:16;99042.25;;;23.41;34.54
83264;BME280;73156;50.988;11.034;2023-12-20T08:44:41;99039.22;;;23.32;34.53
83264;BME280;73156;50.988;11.034;2023-12-20T08:47:06;99043.34;;;23.40;34.20
83264;BME280;73156;50.988;11.034;2023-12-20T08:49:32;99062.72;;;23.41;34.38
83264;BME280;73156;50.988;11.034;2023-12-20T08:51:57;99059.06;;;23.46;34.81
83264;BME280;73156;50.988;11.034;2023-12-20T08:54:22;99063.00;;;23.45;34.34
83264;BME280;73156;50.988;11.034;2023-12-20T08:56:48;99070.91;;;23.38;34.34
83264;BME280;73156;50.988;11.034;2023-12-20T08:59:13;99079.84;;;23.40;34.29
83264;BME280;73156;50.988;11.034;2023-12-20T09:01:39;99079.56;;;23.46;34.31
83264;BME280;73156;50.988;11.034;2023-12-20T09:04:04;99076.47;;;23.43;33.87
83264;BME280;73156;50.988;11.034;2023-12-20T09:06:31;99082.66;;;23.45;34.32
83264;BME280;73156;50.988;11.034;2023-12-20T09:08:57;99064.72;;;23.36;34.22
83264;BME280;73156;50.988;11.034;2023-12-20T09:11:22;99081.56;;;23.41;34.03
83264;BME280;73156;50.988;11.034;2023-12-20T09:13:48;99079.25;;;23.48;34.23
83264;BME280;73156;50.988;11.034;2023-12-20T09:16:13;99077.84;;;23.45;34.09
83264;BME280;73156;50.988;11.034;2023-12-20T09:18:40;99074.22;;;23.45;34.28
83264;BME280;73156;50.988;11.034;2023-12-20T09:21:05;99062.16;;;23.44;34.13
83264;BME280;73156;50.988;11.034;2023-12-20T09:23:31;99061.91;;;23.41;34.04
83264;BME280;73156;50.988;11.034;2023-12-20T09:25:56;99067.81;;;23.39;34.38
83264;BME280;73156;50.988;11.034;2023-12-20T09:28:21;99068.63;;;23.45;34.14
83264;BME280;73156;50.988;11.034;2023-12-20T09:30:46;99060.66;;;23.57;33.80
83264;BME280;73156;50.988;11.034;2023-12-20T09:33:12;99055.28;;;23.60;33.83
83264;BME280;73156;50.988;11.034;2023-12-20T09:35:38;99058.38;;;23.64;33.97
83264;BME280;73156;50.988;11.034;2023-12-20T09:38:03;99051.66;;;23.60;34.14
83264;BME280;73156;50.988;11.034;2023-12-20T09:40:28;99053.63;;;23.59;33.86
83264;BME280;73156;50.988;11.034;2023-12-20T09:42:57;99056.94;;;23.66;33.59
83264;BME280;73156;50.988;11.034;2023-12-20T09:45:23;99047.94;;;23.69;33.93
83264;BME280;73156;50.988;11.034;2023-12-20T09:47:49;99050.75;;;23.69;33.85
83264;BME280;73156;50.988;11.034;2023-12-20T09:50:18;99058.88;;;23.71;33.94
83264;BME280;73156;50.988;11.034;2023-12-20T09:52:46;99061.59;;;23.81;33.35
83264;BME280;73156;50.988;11.034;2023-12-20T09:55:13;99064.16;;;23.77;33.77
83264;BME280;73156;50.988;11.034;2023-12-20T09:57:39;99055.69;;;23.82;33.39
83264;BME280;73156;50.988;11.034;2023-12-20T10:00:05;99057.09;;;23.80;33.26
83264;BME280;73156;50.988;11.034;2023-12-20T10:02:32;99040.22;;;23.85;33.08
83264;BME280;73156;50.988;11.034;2023-12-20T10:04:59;99057.56;;;23.92;33.34
83264;BME280;73156;50.988;11.034;2023-12-20T10:07:25;99042.72;;;23.86;33.42
83264;BME280;73156;50.988;11.034;2023-12-20T10:09:54;99047.41;;;24.01;33.33
83264;BME280;73156;50.988;11.034;2023-12-20T10:12:19;99030.28;;;23.97;33.21
83264;BME280;73156;50.988;11.034;2023-12-20T10:14:44;99037.25;;;24.05;33.08
83264;BME280;73156;50.988;11.034;2023-12-20T10:17:10;99035.88;;;24.02;32.86
83264;BME280;73156;50.988;11.034;2023-12-20T10:19:37;99018.75;;;23.99;33.00
83264;BME280;73156;50.988;11.034;2023-12-20T10:22:04;99028.81;;;24.05;32.97
83264;BME280;73156;50.988;11.034;2023-12-20T10:24:30;99023.84;;;23.97;33.20
83264;BME280;73156;50.988;11.034;2023-12-20T10:27:03;99025.84;;;23.91;33.05
83264;BME280;73156;50.988;11.034;2023-12-20T10:29:32;99022.47;;;23.94;33.23
83264;BME280;73156;50.988;11.034;2023-12-20T10:31:58;99001.97;;;23.89;33.36
83264;BME280;73156;50.988;11.034;2023-12-20T10:34:23;99010.72;;;23.82;33.42
83264;BME280;73156;50.988;11.034;2023-12-20T10:36:49;99010.44;;;23.84;33.34
83264;BME280;73156;50.988;11.034;2023-12-20T10:39:15;99002.00;;;23.84;33.23
83264;BME280;73156;50.988;11.034;2023-12-20T10:41:41;99003.72;;;23.80;33.44
83264;BME280;73156;50.988;11.034;2023-12-20T10:44:08;99003.72;;;23.80;33.29
83264;BME280;73156;50.988;11.034;2023-12-20T10:46:35;98991.69;;;23.74;33.40
83264;BME280;73156;50.988;11.034;2023-12-20T10:49:04;98997.59;;;23.78;33.39
83264;BME280;73156;50.988;11.034;2023-12-20T10:51:31;99001.22;;;23.78;33.49
83264;BME280;73156;50.988;11.034;2023-12-20T10:53:56;99006.00;;;23.78;33.58
83264;BME280;73156;50.988;11.034;2023-12-20T10:56:22;98997.59;;;23.78;33.50
83264;BME280;73156;50.988;11.034;2023-12-20T10:58:49;98993.38;;;23.75;33.61
83264;BME280;73156;50.988;11.034;2023-12-20T11:01:16;98995.00;;;23.81;33.51
83264;BME280;73156;50.988;11.034;2023-12-20T11:03:51;99002.81;;;23.89;33.17
83264;BME280;73156;50.988;11.034;2023-12-20T11:06:27;99001.94;;;23.94;33.37
83264;BME280;73156;50.988;11.034;2023-12-20T11:09:04;98994.38;;;23.94;33.27
83264;BME280;73156;50.988;11.034;2023-12-20T11:14:06;98993.81;;;23.92;33.18
83264;BME280;73156;50.988;11.034;2023-12-20T11:16:37;98996.53;;;24.02;33.26
83264;BME280;73156;50.988;11.034;2023-12-20T11:19:05;98998.56;;;23.97;33.34
83264;BME280;73156;50.988;11.034;2023-12-20T11:21:30;98969.44;;;23.83;33.79
83264;BME280;73156;50.988;11.034;2023-12-20T11:23:56;98973.91;;;23.84;33.93
83264;BME280;73156;50.988;11.034;2023-12-20T11:26:28;98966.69;;;23.78;34.05
83264;BME280;73156;50.988;11.034;2023-12-20T11:31:57;98957.13;;;24.07;33.62
83264;BME280;73156;50.988;11.034;2023-12-20T11:34:27;98960.66;;;23.94;34.10
83264;BME280;73156;50.988;11.034;2023-12-20T11:37:00;98963.03;;;24.06;33.72
83264;BME280;73156;50.988;11.034;2023-12-20T11:39:26;98954.81;;;23.86;34.22
83264;BME280;73156;50.988;11.034;2023-12-20T11:41:54;98979.13;;;24.00;33.99
83264;BME280;73156;50.988;11.034;2023-12-20T11:44:19;98959.91;;;24.12;33.83
83264;BME280;73156;50.988;11.034;2023-12-20T11:46:45;98964.84;;;23.97;34.52
83264;BME280;73156;50.988;11.034;2023-12-20T11:49:11;98958.00;;;24.31;33.90
83264;BME280;73156;50.988;11.034;2023-12-20T11:51:40;98953.44;;;24.12;34.05
83264;BME280;73156;50.988;11.034;2023-12-20T11:54:06;98953.50;;;24.07;33.77
83264;BME280;73156;50.988;11.034;2023-12-20T11:56:31;98945.88;;;24.07;34.38
83264;BME280;73156;50.988;11.034;2023-12-20T11:58:57;98947.25;;;24.10;34.87
83264;BME280;73156;50.988;11.034;2023-12-20T12:01:22;98937.47;;;24.31;34.18
83264;BME280;73156;50.988;11.034;2023-12-20T12:03:47;98938.41;;;24.21;34.45
83264;BME280;73156;50.988;11.034;2023-12-20T12:06:12;98930.09;;;24.35;33.99
83264;BME280;73156;50.988;11.034;2023-12-20T12:08:38;98926.31;;;24.44;34.37
83264;BME280;73156;50.988;11.034;2023-12-20T12:11:04;98933.28;;;24.52;34.08
83264;BME280;73156;50.988;11.034;2023-12-20T12:13:29;98925.22;;;24.45;34.18
83264;BME280;73156;50.988;11.034;2023-12-20T12:15:55;98927.38;;;24.48;34.18
83264;BME280;73156;50.988;11.034;2023-12-20T12:18:20;98924.44;;;24.40;34.11
83264;BME280;73156;50.988;11.034;2023-12-20T12:20:46;98932.56;;;24.41;34.47
83264;BME280;73156;50.988;11.034;2023-12-20T12:23:11;98917.78;;;24.31;34.49
83264;BME280;73156;50.988;11.034;2023-12-20T12:25:36;98915.31;;;24.48;34.25
83264;BME280;73156;50.988;11.034;2023-12-20T12:28:05;98916.53;;;24.42;34.37
83264;BME280;73156;50.988;11.034;2023-12-20T12:30:30;98896.06;;;24.36;34.34
83264;BME280;73156;50.988;11.034;2023-12-20T12:32:56;98914.56;;;24.42;34.82
83264;BME280;73156;50.988;11.034;2023-12-20T12:35:22;98900.44;;;24.24;34.76
83264;BME280;73156;50.988;11.034;2023-12-20T12:37:47;98894.44;;;24.30;34.95
83264;BME280;73156;50.988;11.034;2023-12-20T12:40:16;98884.72;;;24.23;35.15
83264;BME280;73156;50.988;11.034;2023-12-20T12:42:43;98883.09;;;24.17;35.41
83264;BME280;73156;50.988;11.034;2023-12-20T12:45:10;98875.25;;;24.14;35.20
83264;BME280;73156;50.988;11.034;2023-12-20T12:47:37;98873.09;;;24.06;35.40